createdAt,value
2022-12-14T00:02:16.855Z,-2.92
2022-12-14T00:05:02.143Z,-2.93
2022-12-14T00:07:47.511Z,-2.94
2022-12-14T00:10:36.910Z,-2.99
2022-12-14T00:13:22.411Z,-3.02
2022-12-14T00:16:16.368Z,-3.11
2022-12-14T00:19:02.685Z,-3.14
2022-12-14T00:21:48.065Z,-3.17
2022-12-14T00:24:33.821Z,-3.23
2022-12-14T00:27:19.210Z,-3.30
2022-12-14T00:30:05.197Z,-3.37
2022-12-14T00:32:50.650Z,-3.34
2022-12-14T00:35:36.200Z,-3.34
2022-12-14T00:38:21.607Z,-3.44
2022-12-14T00:41:08.041Z,-3.44
2022-12-14T00:43:53.453Z,-3.43
2022-12-14T00:46:38.995Z,-3.42
2022-12-14T00:49:24.670Z,-3.41
2022-12-14T00:52:10.105Z,-3.37
2022-12-14T00:54:55.521Z,-3.38
2022-12-14T00:57:40.810Z,-3.33
2022-12-14T01:00:26.068Z,-3.31
2022-12-14T01:03:12.416Z,-3.31
2022-12-14T01:05:57.992Z,-3.32
2022-12-14T01:08:43.429Z,-3.42
2022-12-14T01:11:28.768Z,-3.44
2022-12-14T01:14:16.735Z,-3.41
2022-12-14T01:17:02.170Z,-3.44
2022-12-14T01:19:49.146Z,-3.40
2022-12-14T01:22:34.792Z,-3.48
2022-12-14T01:25:20.110Z,-3.60
2022-12-14T01:28:05.862Z,-3.65
2022-12-14T01:30:51.920Z,-3.64
2022-12-14T01:33:37.177Z,-3.59
2022-12-14T01:36:26.643Z,-3.55
2022-12-14T01:39:14.141Z,-3.49
2022-12-14T01:41:59.708Z,-3.42
2022-12-14T01:44:44.879Z,-3.40
2022-12-14T01:47:34.557Z,-3.44
2022-12-14T01:50:25.717Z,-3.40
2022-12-14T01:53:17.102Z,-3.37
2022-12-14T01:56:04.647Z,-3.40
2022-12-14T01:58:50.515Z,-3.46
2022-12-14T02:01:36.205Z,-3.50
2022-12-14T02:04:22.122Z,-3.54
2022-12-14T02:07:08.030Z,-3.60
2022-12-14T02:09:57.025Z,-3.67
2022-12-14T02:12:49.461Z,-3.69
2022-12-14T02:15:37.760Z,-3.74
2022-12-14T02:18:27.007Z,-3.78
2022-12-14T02:21:28.393Z,-3.80
2022-12-14T02:24:28.300Z,-3.82
2022-12-14T02:27:22.253Z,-3.83
2022-12-14T02:30:21.277Z,-3.86
2022-12-14T02:33:15.673Z,-3.90
2022-12-14T02:36:29.026Z,-3.93
2022-12-14T02:39:46.993Z,-4.04
2022-12-14T02:42:45.658Z,-4.08
2022-12-14T02:45:42.152Z,-4.16
2022-12-14T02:48:35.896Z,-4.23
2022-12-14T02:51:42.327Z,-4.26
2022-12-14T02:55:03.784Z,-4.31
2022-12-14T02:57:58.606Z,-4.35
2022-12-14T03:00:45.102Z,-4.38
2022-12-14T03:03:30.783Z,-4.37
2022-12-14T03:06:26.108Z,-4.37
2022-12-14T03:09:18.200Z,-4.42
2022-12-14T03:12:13.257Z,-4.44
2022-12-14T03:14:59.509Z,-4.41
2022-12-14T03:17:49.288Z,-4.39
2022-12-14T03:20:37.352Z,-4.38
2022-12-14T03:23:26.879Z,-4.41
2022-12-14T03:26:27.557Z,-4.40
2022-12-14T03:29:20.512Z,-4.47
2022-12-14T03:32:10.555Z,-4.48
2022-12-14T03:35:01.749Z,-4.47
2022-12-14T03:37:59.160Z,-4.44
2022-12-14T03:41:23.280Z,-4.45
2022-12-14T03:44:23.836Z,-4.39
2022-12-14T03:47:24.456Z,-4.40
2022-12-14T03:50:16.420Z,-4.39
2022-12-14T03:53:26.483Z,-4.34
2022-12-14T03:56:14.922Z,-4.38
2022-12-14T03:59:12.613Z,-4.38
2022-12-14T04:02:07.055Z,-4.36
2022-12-14T04:04:59.120Z,-4.34
2022-12-14T04:07:59.427Z,-4.32
2022-12-14T04:11:07.865Z,-4.33
2022-12-14T04:14:31.489Z,-4.41
2022-12-14T04:17:41.180Z,-4.43
2022-12-14T04:20:49.342Z,-4.49
2022-12-14T04:23:59.729Z,-4.53
2022-12-14T04:26:56.526Z,-4.52
2022-12-14T04:29:57.036Z,-4.52
2022-12-14T04:32:48.401Z,-4.47
2022-12-14T04:35:43.595Z,-4.45
2022-12-14T04:38:36.794Z,-4.52
2022-12-14T04:41:27.299Z,-4.54
2022-12-14T04:44:23.745Z,-4.59
2022-12-14T04:47:12.538Z,-4.66
2022-12-14T04:50:06.102Z,-4.68
2022-12-14T04:52:59.502Z,-4.66
2022-12-14T04:56:17.851Z,-4.58
2022-12-14T04:59:04.006Z,-4.56
2022-12-14T05:02:02.463Z,-4.51
2022-12-14T05:05:11.187Z,-4.55
2022-12-14T05:08:08.256Z,-4.45
2022-12-14T05:11:23.199Z,-4.37
2022-12-14T05:14:18.349Z,-4.41
2022-12-14T05:17:08.898Z,-4.46
2022-12-14T05:19:54.599Z,-4.46
2022-12-14T05:22:40.866Z,-4.50
2022-12-14T05:25:26.095Z,-4.58
2022-12-14T05:28:12.270Z,-4.67
2022-12-14T05:30:57.444Z,-4.75
2022-12-14T05:33:43.071Z,-4.82
2022-12-14T05:36:28.091Z,-4.79
2022-12-14T05:39:14.936Z,-4.86
2022-12-14T05:42:00.621Z,-4.93
2022-12-14T05:44:45.813Z,-4.95
2022-12-14T05:47:31.079Z,-4.96
2022-12-14T05:50:16.152Z,-4.96
2022-12-14T05:53:01.627Z,-5.04
2022-12-14T05:55:52.749Z,-5.02
2022-12-14T05:58:38.810Z,-5.03
2022-12-14T06:01:24.623Z,-5.04
2022-12-14T06:04:13.778Z,-5.05
2022-12-14T06:06:59.534Z,-5.02
2022-12-14T06:09:44.657Z,-5.05
2022-12-14T06:12:30.496Z,-5.06
2022-12-14T06:15:15.900Z,-5.04
2022-12-14T06:18:01.153Z,-4.94
2022-12-14T06:20:46.612Z,-4.89
2022-12-14T06:23:31.845Z,-4.88
2022-12-14T06:26:18.139Z,-4.83
2022-12-14T06:29:04.357Z,-4.87
2022-12-14T06:31:49.964Z,-4.90
2022-12-14T06:34:38.699Z,-4.97
2022-12-14T06:37:26.016Z,-4.94
2022-12-14T06:40:11.689Z,-4.87
2022-12-14T06:42:56.858Z,-4.84
2022-12-14T06:45:42.329Z,-4.83
2022-12-14T06:48:27.399Z,-4.81
2022-12-14T06:51:12.743Z,-4.91
2022-12-14T06:53:58.681Z,-4.95
2022-12-14T06:56:46.321Z,-4.96
2022-12-14T06:59:31.523Z,-5.02
2022-12-14T07:02:17.117Z,-5.09
2022-12-14T07:05:02.474Z,-5.11
2022-12-14T07:07:47.626Z,-5.07
2022-12-14T07:10:34.651Z,-5.03
2022-12-14T07:13:21.216Z,-4.94
2022-12-14T07:16:07.810Z,-4.94
2022-12-14T07:18:56.861Z,-4.94
2022-12-14T07:21:42.003Z,-4.91
2022-12-14T07:24:27.449Z,-4.92
2022-12-14T07:27:13.056Z,-4.91
2022-12-14T07:29:58.303Z,-4.90
2022-12-14T07:32:43.797Z,-4.92
2022-12-14T07:35:29.035Z,-4.91
2022-12-14T07:38:14.290Z,-4.87
2022-12-14T07:41:08.239Z,-4.79
2022-12-14T07:43:55.083Z,-4.79
2022-12-14T07:46:41.031Z,-4.73
2022-12-14T07:49:26.067Z,-4.69
2022-12-14T07:52:11.312Z,-4.65
2022-12-14T07:54:56.758Z,-4.66
2022-12-14T07:57:42.217Z,-4.62
2022-12-14T08:00:27.575Z,-4.57
2022-12-14T08:03:12.934Z,-4.61
2022-12-14T08:05:58.335Z,-4.55
2022-12-14T08:08:43.981Z,-4.51
2022-12-14T08:11:29.648Z,-4.44
2022-12-14T08:14:18.963Z,-4.42
2022-12-14T08:17:03.921Z,-4.40
2022-12-14T08:19:49.221Z,-4.32
2022-12-14T08:22:34.709Z,-4.28
2022-12-14T08:25:20.073Z,-4.27
2022-12-14T08:28:05.937Z,-4.24
2022-12-14T08:30:52.062Z,-4.15
2022-12-14T08:33:38.721Z,-4.17
2022-12-14T08:36:26.773Z,-4.08
2022-12-14T08:39:13.191Z,-4.00
2022-12-14T08:41:58.417Z,-4.01
2022-12-14T08:44:43.896Z,-3.99
2022-12-14T08:47:29.172Z,-3.95
2022-12-14T08:50:14.738Z,-3.87
2022-12-14T08:52:59.911Z,-3.76
2022-12-14T08:55:45.783Z,-3.64
2022-12-14T08:58:31.467Z,-3.60
2022-12-14T09:01:20.419Z,-3.49
2022-12-14T09:04:08.053Z,-3.40
2022-12-14T09:06:53.430Z,-3.25
2022-12-14T09:09:38.889Z,-3.21
2022-12-14T09:12:24.367Z,-3.30
2022-12-14T09:15:10.387Z,-3.41
2022-12-14T09:17:56.067Z,-3.43
2022-12-14T09:20:43.271Z,-3.57
2022-12-14T09:23:30.137Z,-3.57
2022-12-14T09:26:21.205Z,-3.51
2022-12-14T09:29:06.825Z,-3.55
2022-12-14T09:31:52.038Z,-3.53
2022-12-14T09:34:37.230Z,-3.45
2022-12-14T09:37:22.737Z,-2.52
2022-12-14T09:40:10.761Z,-2.18
2022-12-14T09:43:05.940Z,-2.32
2022-12-14T09:45:54.801Z,-2.37
2022-12-14T09:48:42.284Z,-2.33
2022-12-14T09:51:36.515Z,-2.50
2022-12-14T09:54:28.234Z,-2.63
2022-12-14T09:57:19.285Z,-2.68
2022-12-14T10:00:13.257Z,-2.70
2022-12-14T10:03:10.440Z,-2.75
2022-12-14T10:06:22.458Z,-2.81
2022-12-14T10:09:36.316Z,-2.59
2022-12-14T10:12:46.723Z,-2.36
2022-12-14T10:15:59.986Z,-2.20
2022-12-14T10:19:18.690Z,-2.25
2022-12-14T10:22:12.053Z,-2.20
2022-12-14T10:25:20.362Z,-2.06
2022-12-14T10:28:17.731Z,-1.91
2022-12-14T10:31:07.913Z,-1.85
2022-12-14T10:33:57.886Z,-1.77
2022-12-14T10:36:52.120Z,-1.67
2022-12-14T10:39:50.890Z,-1.60
2022-12-14T10:43:10.459Z,-1.65
2022-12-14T10:46:13.471Z,-1.68
2022-12-14T10:49:09.612Z,-1.73
2022-12-14T10:52:12.236Z,-1.76
2022-12-14T10:55:04.789Z,-1.73
2022-12-14T10:57:50.446Z,-1.71
2022-12-14T11:00:36.188Z,-1.62
2022-12-14T11:03:22.173Z,-1.62
2022-12-14T11:06:19.712Z,-1.59
2022-12-14T11:09:21.127Z,-1.59
2022-12-14T11:12:16.173Z,-1.56
2022-12-14T11:15:06.420Z,-1.52
2022-12-14T11:18:01.942Z,-1.40
2022-12-14T11:21:02.202Z,-1.46
2022-12-14T11:23:54.497Z,-1.55
2022-12-14T11:26:42.316Z,-1.55
2022-12-14T11:29:37.852Z,-1.61
2022-12-14T11:32:24.638Z,-1.64
2022-12-14T11:35:16.539Z,-1.60
2022-12-14T11:38:02.230Z,-1.62
2022-12-14T11:40:47.412Z,-1.67
2022-12-14T11:43:40.127Z,-1.70
2022-12-14T11:46:44.882Z,-1.77
2022-12-14T11:49:39.584Z,-1.80
2022-12-14T11:52:37.050Z,-1.84
2022-12-14T11:55:27.135Z,-1.77
2022-12-14T11:58:21.924Z,-1.70
2022-12-14T12:01:19.024Z,-1.58
2022-12-14T12:04:04.254Z,-1.54
2022-12-14T12:06:50.102Z,-1.53
2022-12-14T12:09:35.493Z,-1.49
2022-12-14T12:12:22.288Z,-1.56
2022-12-14T12:15:18.251Z,-1.62
2022-12-14T12:18:28.705Z,-1.59
2022-12-14T12:21:21.548Z,-1.53
2022-12-14T12:24:25.677Z,-1.52
2022-12-14T12:27:15.424Z,-1.55
2022-12-14T12:30:20.423Z,-1.50
2022-12-14T12:33:18.788Z,-1.45
2022-12-14T12:36:05.730Z,-1.47
2022-12-14T12:38:59.439Z,-1.46
2022-12-14T12:42:03.584Z,-1.46
2022-12-14T12:44:54.367Z,-1.60
2022-12-14T12:48:02.556Z,-1.67
2022-12-14T12:51:03.943Z,-1.68
2022-12-14T12:53:55.979Z,-1.70
2022-12-14T12:56:48.829Z,-1.63
2022-12-14T12:59:39.714Z,-1.51
2022-12-14T13:02:32.450Z,-1.37
2022-12-14T13:05:45.843Z,-1.30
2022-12-14T13:08:39.137Z,-1.19
2022-12-14T13:11:36.103Z,-1.14
2022-12-14T13:14:27.430Z,-1.12
2022-12-14T13:17:32.845Z,-1.15
2022-12-14T13:20:31.007Z,-1.31
2022-12-14T13:23:43.705Z,-1.45
2022-12-14T13:26:58.579Z,-1.59
2022-12-14T13:30:10.633Z,-1.64
2022-12-14T13:33:36.828Z,-1.83
2022-12-14T13:36:31.452Z,-1.95
2022-12-14T13:39:25.705Z,-2.02
2022-12-14T13:42:27.202Z,-2.06
2022-12-14T13:45:32.163Z,-2.07
2022-12-14T13:48:20.302Z,-2.09
2022-12-14T13:51:09.118Z,-2.12
2022-12-14T13:53:59.167Z,-2.16
2022-12-14T13:56:45.431Z,-2.29
2022-12-14T13:59:36.602Z,-2.36
2022-12-14T14:02:31.081Z,-2.39
2022-12-14T14:05:18.666Z,-2.48
2022-12-14T14:08:32.126Z,-2.43
2022-12-14T14:11:38.999Z,-2.41
2022-12-14T14:14:29.530Z,-2.50
2022-12-14T14:17:35.816Z,-2.59
2022-12-14T14:20:42.592Z,-2.65
2022-12-14T14:23:31.065Z,-2.69
2022-12-14T14:26:22.667Z,-2.69
2022-12-14T14:29:26.059Z,-2.68
2022-12-14T14:32:41.738Z,-2.63
2022-12-14T14:35:30.417Z,-2.73
2022-12-14T14:38:28.954Z,-2.67
2022-12-14T14:41:23.500Z,-2.79
2022-12-14T14:44:35.158Z,-2.82
2022-12-14T14:47:26.841Z,-2.84
2022-12-14T14:50:15.235Z,-2.80
2022-12-14T14:53:12.720Z,-2.77
2022-12-14T14:56:00.017Z,-2.89
2022-12-14T14:58:45.585Z,-2.90
2022-12-14T15:01:30.894Z,-2.99
2022-12-14T15:04:23.762Z,-3.00
2022-12-14T15:07:18.648Z,-2.95
2022-12-14T15:10:28.154Z,-3.03
2022-12-14T15:13:22.871Z,-3.04
2022-12-14T15:16:21.466Z,-3.00
2022-12-14T15:19:23.480Z,-3.07
2022-12-14T15:22:15.181Z,-3.16
2022-12-14T15:25:01.805Z,-3.12
2022-12-14T15:27:47.762Z,-3.11
2022-12-14T15:30:34.811Z,-3.18
2022-12-14T15:33:41.528Z,-3.13
2022-12-14T15:36:42.118Z,-3.11
2022-12-14T15:39:35.722Z,-3.06
2022-12-14T15:42:21.213Z,-3.04
2022-12-14T15:45:15.076Z,-3.05
2022-12-14T15:48:14.190Z,-3.02
2022-12-14T15:51:10.209Z,-3.03
2022-12-14T15:53:55.637Z,-3.05
2022-12-14T15:56:45.066Z,-3.01
2022-12-14T15:59:34.763Z,-3.06
2022-12-14T16:02:26.869Z,-3.08
2022-12-14T16:05:20.561Z,-3.15
2022-12-14T16:08:06.641Z,-3.17
2022-12-14T16:10:55.793Z,-3.18
2022-12-14T16:13:43.916Z,-3.15
2022-12-14T16:16:29.577Z,-3.16
2022-12-14T16:19:27.911Z,-3.20
2022-12-14T16:22:31.831Z,-3.26
2022-12-14T16:25:19.469Z,-3.26
2022-12-14T16:28:29.151Z,-3.23
2022-12-14T16:31:20.361Z,-3.25
2022-12-14T16:34:17.301Z,-3.41
2022-12-14T16:37:31.581Z,-3.47
2022-12-14T16:40:33.706Z,-3.45
2022-12-14T16:43:34.755Z,-3.54
2022-12-14T16:46:20.846Z,-3.50
2022-12-14T16:49:28.966Z,-3.48
2022-12-14T16:52:32.863Z,-3.43
2022-12-14T16:55:20.463Z,-3.51
2022-12-14T16:58:06.242Z,-3.60
2022-12-14T17:01:01.783Z,-3.60
2022-12-14T17:04:10.972Z,-3.54
2022-12-14T17:06:57.333Z,-3.53
2022-12-14T17:09:42.613Z,-3.51
2022-12-14T17:12:27.772Z,-3.49
2022-12-14T17:15:18.874Z,-3.44
2022-12-14T17:18:07.064Z,-3.45
2022-12-14T17:20:52.366Z,-3.46
2022-12-14T17:23:40.533Z,-3.46
2022-12-14T17:26:31.780Z,-3.39
2022-12-14T17:29:24.737Z,-3.43
2022-12-14T17:32:15.438Z,-3.54
2022-12-14T17:35:01.334Z,-3.49
2022-12-14T17:37:47.325Z,-3.51
2022-12-14T17:40:34.747Z,-3.52
2022-12-14T17:43:25.458Z,-3.65
2022-12-14T17:46:11.082Z,-3.72
2022-12-14T17:48:58.417Z,-3.74
2022-12-14T17:51:46.928Z,-3.75
2022-12-14T17:54:32.926Z,-3.70
2022-12-14T17:57:20.893Z,-3.69
2022-12-14T18:00:25.509Z,-3.68
2022-12-14T18:03:12.605Z,-3.67
2022-12-14T18:05:59.201Z,-3.72
2022-12-14T18:08:45.413Z,-3.69
2022-12-14T18:11:31.201Z,-3.69
2022-12-14T18:14:17.084Z,-3.69
2022-12-14T18:17:04.376Z,-3.64
2022-12-14T18:19:51.832Z,-3.63
2022-12-14T18:22:37.568Z,-3.69
2022-12-14T18:25:38.142Z,-3.73
2022-12-14T18:28:24.020Z,-3.81
2022-12-14T18:31:19.481Z,-3.81
2022-12-14T18:34:05.197Z,-3.79
2022-12-14T18:36:50.217Z,-3.72
2022-12-14T18:39:35.633Z,-3.69
2022-12-14T18:42:22.750Z,-3.74
2022-12-14T18:45:28.110Z,-3.77
2022-12-14T18:48:13.923Z,-3.79
2022-12-14T18:50:59.984Z,-3.79
2022-12-14T18:53:45.693Z,-3.76
2022-12-14T18:56:31.084Z,-3.81
2022-12-14T18:59:16.424Z,-3.80
2022-12-14T19:02:02.176Z,-3.81
2022-12-14T19:04:50.719Z,-3.87
2022-12-14T19:07:36.580Z,-3.90
2022-12-14T19:10:24.152Z,-3.92
2022-12-14T19:13:23.409Z,-3.94
2022-12-14T19:16:12.754Z,-3.94
2022-12-14T19:18:59.533Z,-3.91
2022-12-14T19:21:45.329Z,-3.91
2022-12-14T19:24:31.142Z,-3.85
2022-12-14T19:27:26.042Z,-3.85
2022-12-14T19:30:22.956Z,-3.93
2022-12-14T19:33:10.195Z,-3.97
2022-12-14T19:35:55.660Z,-3.94
2022-12-14T19:38:41.136Z,-3.96
2022-12-14T19:41:26.231Z,-3.92
2022-12-14T19:44:11.245Z,-3.93
2022-12-14T19:46:56.786Z,-3.89
2022-12-14T19:49:42.218Z,-3.89
2022-12-14T19:52:27.542Z,-3.90
2022-12-14T19:55:12.897Z,-3.91
2022-12-14T19:57:58.059Z,-3.92
2022-12-14T20:00:43.303Z,-3.95
2022-12-14T20:03:29.356Z,-3.98
2022-12-14T20:06:15.285Z,-3.96
2022-12-14T20:09:03.062Z,-3.99
2022-12-14T20:11:48.563Z,-3.91
2022-12-14T20:14:34.050Z,-3.89
2022-12-14T20:17:19.446Z,-3.84
2022-12-14T20:20:05.455Z,-3.79
2022-12-14T20:22:50.752Z,-3.77
2022-12-14T20:25:36.364Z,-3.72
2022-12-14T20:28:21.442Z,-3.62
2022-12-14T20:31:09.670Z,-3.59
2022-12-14T20:33:54.880Z,-3.59
2022-12-14T20:36:40.203Z,-3.54
2022-12-14T20:39:25.340Z,-3.55
2022-12-14T20:42:10.881Z,-3.57
2022-12-14T20:44:56.413Z,-3.62
2022-12-14T20:47:41.507Z,-3.63
2022-12-14T20:50:26.824Z,-3.62
2022-12-14T20:53:12.539Z,-3.56
2022-12-14T20:56:02.938Z,-3.53
2022-12-14T20:58:48.425Z,-3.59
2022-12-14T21:01:38.769Z,-3.68
2022-12-14T21:04:24.252Z,-3.78
2022-12-14T21:07:09.365Z,-3.92
2022-12-14T21:09:54.621Z,-3.94
2022-12-14T21:12:40.073Z,-3.96
2022-12-14T21:15:25.583Z,-4.00
2022-12-14T21:18:10.929Z,-3.99
2022-12-14T21:20:56.811Z,-3.96
2022-12-14T21:23:42.208Z,-3.88
2022-12-14T21:26:27.592Z,-3.83
2022-12-14T21:29:14.214Z,-3.76
2022-12-14T21:32:00.263Z,-3.68
2022-12-14T21:34:46.345Z,-3.63
2022-12-14T21:37:31.440Z,-3.61
2022-12-14T21:40:36.742Z,-3.54
2022-12-14T21:43:22.377Z,-3.63
2022-12-14T21:46:07.438Z,-3.64
2022-12-14T21:48:52.936Z,-3.59
2022-12-14T21:51:38.309Z,-3.59
2022-12-14T21:54:25.080Z,-3.55
2022-12-14T21:57:35.731Z,-3.56
2022-12-14T22:00:21.553Z,-3.57
2022-12-14T22:03:06.701Z,-3.60
2022-12-14T22:05:51.867Z,-3.63
2022-12-14T22:08:37.930Z,-3.71
2022-12-14T22:11:22.970Z,-3.82
2022-12-14T22:14:13.266Z,-3.91
2022-12-14T22:16:58.754Z,-4.08
2022-12-14T22:19:44.087Z,-4.12
2022-12-14T22:22:29.279Z,-4.20
2022-12-14T22:25:15.400Z,-4.28
2022-12-14T22:28:00.738Z,-4.32
2022-12-14T22:30:46.228Z,-4.29
2022-12-14T22:33:32.148Z,-4.17
2022-12-14T22:36:17.826Z,-4.07
2022-12-14T22:39:03.389Z,-3.95
2022-12-14T22:41:49.414Z,-3.93
2022-12-14T22:44:34.512Z,-3.92
2022-12-14T22:47:19.840Z,-3.89
2022-12-14T22:50:05.752Z,-3.92
2022-12-14T22:52:50.883Z,-3.96
2022-12-14T22:55:38.974Z,-4.01
2022-12-14T22:58:26.376Z,-4.05
2022-12-14T23:01:13.680Z,-4.16
2022-12-14T23:03:58.920Z,-4.09
2022-12-14T23:06:44.907Z,-4.00
2022-12-14T23:09:48.898Z,-3.96
2022-12-14T23:12:52.666Z,-4.02
2022-12-14T23:15:56.410Z,-3.98
2022-12-14T23:19:00.266Z,-3.98
2022-12-14T23:22:04.014Z,-3.95
2022-12-14T23:25:07.888Z,-3.89
2022-12-14T23:28:11.679Z,-3.93
2022-12-14T23:31:16.370Z,-3.89
2022-12-14T23:34:20.261Z,-3.85
2022-12-14T23:37:24.083Z,-3.75
2022-12-14T23:40:28.563Z,-3.68
2022-12-14T23:43:34.962Z,-3.74
2022-12-14T23:46:38.720Z,-3.78
2022-12-14T23:49:42.615Z,-3.73
2022-12-14T23:52:46.487Z,-3.74
2022-12-14T23:55:50.219Z,-3.75
2022-12-14T23:58:54.302Z,-3.87
